createdAt,value
2017-08-26T00:01:08.367Z,19.30
2017-08-26T00:03:35.934Z,19.30
2017-08-26T00:06:03.548Z,19.30
2017-08-26T00:08:31.098Z,19.20
2017-08-26T00:10:58.960Z,19.20
2017-08-26T00:13:26.538Z,19.20
2017-08-26T00:15:54.098Z,19.20
2017-08-26T00:18:21.697Z,19.20
2017-08-26T00:20:49.268Z,19.10
2017-08-26T00:23:17.236Z,19.10
2017-08-26T00:25:44.809Z,19.00
2017-08-26T00:28:12.394Z,19.00
2017-08-26T00:30:40.017Z,19.10
2017-08-26T00:33:07.591Z,19.10
2017-08-26T00:35:35.563Z,19.10
2017-08-26T00:38:03.124Z,19.10
2017-08-26T00:40:30.730Z,19.10
2017-08-26T00:42:58.332Z,19.10
2017-08-26T00:45:25.914Z,19.10
2017-08-26T00:47:53.851Z,19.10
2017-08-26T00:50:21.418Z,19.10
2017-08-26T00:52:49.005Z,19.10
2017-08-26T00:55:16.607Z,19.10
2017-08-26T00:57:44.200Z,19.00
2017-08-26T01:00:12.149Z,19.00
2017-08-26T01:02:39.807Z,18.90
2017-08-26T01:05:07.384Z,18.90
2017-08-26T01:07:39.780Z,18.90
2017-08-26T01:10:07.365Z,19.00
2017-08-26T01:12:35.632Z,18.90
2017-08-26T01:15:03.399Z,18.80
2017-08-26T01:17:31.062Z,18.80
2017-08-26T01:19:58.671Z,18.80
2017-08-26T01:22:26.239Z,18.80
2017-08-26T01:24:54.312Z,18.70
2017-08-26T01:27:22.019Z,18.70
2017-08-26T01:29:49.614Z,18.70
2017-08-26T01:32:17.237Z,18.60
2017-08-26T01:34:44.787Z,18.60
2017-08-26T01:37:12.690Z,18.60
2017-08-26T01:39:40.258Z,18.60
2017-08-26T01:42:08.076Z,18.50
2017-08-26T01:44:35.740Z,18.50
2017-08-26T01:47:03.347Z,18.50
2017-08-26T01:49:30.975Z,18.40
2017-08-26T01:51:58.519Z,18.40
2017-08-26T01:54:26.247Z,18.40
2017-08-26T01:56:53.813Z,18.30
2017-08-26T01:59:21.422Z,18.30
2017-08-26T02:01:48.976Z,18.20
2017-08-26T02:04:16.598Z,18.20
2017-08-26T02:06:44.153Z,18.20
2017-08-26T02:09:11.877Z,18.20
2017-08-26T02:11:39.713Z,18.20
2017-08-26T02:14:07.325Z,18.20
2017-08-26T02:16:34.933Z,18.10
2017-08-26T02:19:02.536Z,18.10
2017-08-26T02:21:30.103Z,18.10
2017-08-26T02:23:57.726Z,18.10
2017-08-26T02:26:25.283Z,18.10
2017-08-26T02:28:52.882Z,18.10
2017-08-26T02:31:20.473Z,18.10
2017-08-26T02:33:48.278Z,18.10
2017-08-26T02:36:15.877Z,18.10
2017-08-26T02:38:43.489Z,18.10
2017-08-26T02:41:11.053Z,18.10
2017-08-26T02:43:38.693Z,18.00
2017-08-26T02:46:06.272Z,18.00
2017-08-26T02:48:33.880Z,18.00
2017-08-26T02:51:01.460Z,18.00
2017-08-26T02:53:29.019Z,18.00
2017-08-26T02:55:56.618Z,18.00
2017-08-26T02:58:24.170Z,17.90
2017-08-26T03:00:51.860Z,17.90
2017-08-26T03:03:19.419Z,18.00
2017-08-26T03:05:47.057Z,17.90
2017-08-26T03:08:14.628Z,18.00
2017-08-26T03:10:42.246Z,17.90
2017-08-26T03:13:09.818Z,17.90
2017-08-26T03:15:37.425Z,17.90
2017-08-26T03:18:04.990Z,17.90
2017-08-26T03:20:32.654Z,17.80
2017-08-26T03:23:00.227Z,17.80
2017-08-26T03:25:27.853Z,17.80
2017-08-26T03:27:55.433Z,17.80
2017-08-26T03:30:23.046Z,17.80
2017-08-26T03:32:50.617Z,17.80
2017-08-26T03:35:18.214Z,17.80
2017-08-26T03:37:45.777Z,17.70
2017-08-26T03:40:13.380Z,17.80
2017-08-26T03:42:40.947Z,17.80
2017-08-26T03:45:08.552Z,17.80
2017-08-26T03:47:36.123Z,17.70
2017-08-26T03:50:03.728Z,17.70
2017-08-26T03:52:31.396Z,17.70
2017-08-26T03:54:58.990Z,17.70
2017-08-26T03:57:26.566Z,17.70
2017-08-26T03:59:54.172Z,17.70
2017-08-26T04:02:21.736Z,17.70
2017-08-26T04:04:49.684Z,17.70
2017-08-26T04:07:17.262Z,17.70
2017-08-26T04:09:44.842Z,17.70
2017-08-26T04:12:12.551Z,17.70
2017-08-26T04:14:40.126Z,17.70
2017-08-26T04:17:07.764Z,17.70
2017-08-26T04:19:35.347Z,17.70
2017-08-26T04:22:02.962Z,17.70
2017-08-26T04:24:30.556Z,17.60
2017-08-26T04:26:58.156Z,17.60
2017-08-26T04:29:25.741Z,17.60
2017-08-26T04:31:53.305Z,17.60
2017-08-26T04:34:20.869Z,17.70
2017-08-26T04:36:48.716Z,17.70
2017-08-26T04:39:16.279Z,17.70
2017-08-26T04:41:43.898Z,17.80
2017-08-26T04:44:11.612Z,17.80
2017-08-26T04:46:39.212Z,17.80
2017-08-26T04:49:06.802Z,17.90
2017-08-26T04:51:34.413Z,17.90
2017-08-26T04:54:01.988Z,18.00
2017-08-26T04:56:29.603Z,18.10
2017-08-26T04:58:57.167Z,18.20
2017-08-26T05:01:24.791Z,18.20
2017-08-26T05:03:52.365Z,18.30
2017-08-26T05:06:19.985Z,18.40
2017-08-26T05:08:47.570Z,18.40
2017-08-26T05:11:15.181Z,18.40
2017-08-26T05:13:42.737Z,18.40
2017-08-26T05:16:10.352Z,18.40
2017-08-26T05:18:37.916Z,18.40
2017-08-26T05:21:05.632Z,18.40
2017-08-26T05:23:33.191Z,18.40
2017-08-26T05:26:00.771Z,18.40
2017-08-26T05:28:28.430Z,18.50
2017-08-26T05:30:56.054Z,18.50
2017-08-26T05:33:24.024Z,18.60
2017-08-26T05:35:51.595Z,18.70
2017-08-26T05:38:19.241Z,18.80
2017-08-26T05:40:46.819Z,18.90
2017-08-26T05:43:14.412Z,19.00
2017-08-26T05:45:41.972Z,19.00
2017-08-26T05:48:09.572Z,19.10
2017-08-26T05:50:37.130Z,19.10
2017-08-26T05:53:04.752Z,19.10
2017-08-26T05:55:32.336Z,19.10
2017-08-26T05:57:59.941Z,19.10
2017-08-26T06:00:27.513Z,19.00
2017-08-26T06:02:55.130Z,19.00
2017-08-26T06:05:22.707Z,19.00
2017-08-26T06:07:50.319Z,19.00
2017-08-26T06:10:18.586Z,19.00
2017-08-26T06:12:46.207Z,19.10
2017-08-26T06:15:13.786Z,19.10
2017-08-26T06:17:41.435Z,19.10
2017-08-26T06:20:09.013Z,19.20
2017-08-26T06:22:36.631Z,19.30
2017-08-26T06:25:04.212Z,19.30
2017-08-26T06:27:31.827Z,19.30
2017-08-26T06:29:59.402Z,19.40
2017-08-26T06:32:27.012Z,19.40
2017-08-26T06:34:54.625Z,19.40
2017-08-26T06:37:22.333Z,19.40
2017-08-26T06:39:49.916Z,19.50
2017-08-26T06:42:17.480Z,19.50
2017-08-26T06:44:45.084Z,19.60
2017-08-26T06:47:12.649Z,19.60
2017-08-26T06:49:40.247Z,19.70
2017-08-26T06:52:07.803Z,19.70
2017-08-26T06:54:35.659Z,19.70
2017-08-26T06:57:03.236Z,19.70
2017-08-26T06:59:30.830Z,19.70
2017-08-26T07:01:58.529Z,19.80
2017-08-26T07:04:26.137Z,19.80
2017-08-26T07:06:53.959Z,19.90
2017-08-26T07:09:21.563Z,19.90
2017-08-26T07:11:49.128Z,19.90
2017-08-26T07:14:16.739Z,20.00
2017-08-26T07:16:44.300Z,20.10
2017-08-26T07:19:11.914Z,20.10
2017-08-26T07:21:39.492Z,20.10
2017-08-26T07:24:07.103Z,20.20
2017-08-26T07:26:34.692Z,20.20
2017-08-26T07:29:02.325Z,20.30
2017-08-26T07:31:29.893Z,20.30
2017-08-26T07:33:57.496Z,20.40
2017-08-26T07:36:25.386Z,20.40
2017-08-26T07:38:52.984Z,20.30
2017-08-26T07:41:20.529Z,20.30
2017-08-26T07:43:48.145Z,20.20
2017-08-26T07:46:15.708Z,20.20
2017-08-26T07:48:43.370Z,20.20
2017-08-26T07:51:10.929Z,20.10
2017-08-26T07:53:38.590Z,20.00
2017-08-26T07:56:06.177Z,20.00
2017-08-26T07:58:33.741Z,20.00
2017-08-26T08:01:01.348Z,20.00
2017-08-26T08:03:28.937Z,20.10
2017-08-26T08:05:56.530Z,20.20
2017-08-26T08:08:24.110Z,20.30
2017-08-26T08:10:51.964Z,20.40
2017-08-26T08:13:19.523Z,20.60
2017-08-26T08:15:47.141Z,20.70
2017-08-26T08:18:14.875Z,20.80
2017-08-26T08:20:43.254Z,21.00
2017-08-26T08:23:10.821Z,21.00
2017-08-26T08:25:38.432Z,21.00
2017-08-26T08:28:06.010Z,21.00
2017-08-26T08:30:33.633Z,21.00
2017-08-26T08:33:01.196Z,21.00
2017-08-26T08:35:28.804Z,20.90
2017-08-26T08:37:56.355Z,20.80
2017-08-26T08:40:23.968Z,20.80
2017-08-26T08:42:51.643Z,20.70
2017-08-26T08:45:19.367Z,20.70
2017-08-26T08:47:46.947Z,20.60
2017-08-26T08:50:14.562Z,20.50
2017-08-26T08:52:42.141Z,20.50
2017-08-26T08:55:09.745Z,20.40
2017-08-26T08:57:37.321Z,20.40
2017-08-26T09:00:04.935Z,20.30
2017-08-26T09:02:32.497Z,20.30
2017-08-26T09:05:00.116Z,20.20
2017-08-26T09:07:27.666Z,20.20
2017-08-26T09:09:56.173Z,20.10
2017-08-26T09:12:23.738Z,20.10
2017-08-26T09:14:52.389Z,20.10
2017-08-26T09:17:19.982Z,20.10
2017-08-26T09:19:47.573Z,20.10
2017-08-26T09:22:15.217Z,20.10
2017-08-26T09:24:42.811Z,20.10
2017-08-26T09:27:10.457Z,20.20
2017-08-26T09:29:38.156Z,20.20
2017-08-26T09:32:05.763Z,20.20
2017-08-26T09:34:33.340Z,20.30
2017-08-26T09:37:00.943Z,20.30
2017-08-26T09:39:28.532Z,20.40
2017-08-26T09:41:56.160Z,20.50
2017-08-26T09:44:23.766Z,20.60
2017-08-26T09:46:51.372Z,20.80
2017-08-26T09:49:18.946Z,20.90
2017-08-26T09:51:46.548Z,21.10
2017-08-26T09:54:14.145Z,21.20
2017-08-26T09:56:41.753Z,21.30
2017-08-26T09:59:09.318Z,21.40
2017-08-26T10:01:36.951Z,21.50
2017-08-26T10:04:04.643Z,21.60
2017-08-26T10:06:32.241Z,21.70
2017-08-26T10:08:59.810Z,21.90
2017-08-26T10:11:27.408Z,22.00
2017-08-26T10:13:54.970Z,22.20
2017-08-26T10:16:22.565Z,22.30
2017-08-26T10:18:50.145Z,22.50
2017-08-26T10:21:17.760Z,22.60
2017-08-26T10:23:45.311Z,22.70
2017-08-26T10:26:12.925Z,22.70
2017-08-26T10:28:40.493Z,22.90
2017-08-26T10:31:08.465Z,23.10
2017-08-26T10:33:36.046Z,23.20
2017-08-26T10:36:03.620Z,23.20
2017-08-26T10:38:31.239Z,23.20
2017-08-26T10:40:58.825Z,23.10
2017-08-26T10:43:26.428Z,23.00
2017-08-26T10:45:53.979Z,23.10
2017-08-26T10:48:21.750Z,23.30
2017-08-26T10:50:49.307Z,23.60
2017-08-26T10:53:16.982Z,23.80
2017-08-26T10:55:44.531Z,24.00
2017-08-26T10:58:12.143Z,24.00
2017-08-26T11:00:39.716Z,23.90
2017-08-26T11:03:07.325Z,23.80
2017-08-26T11:05:35.085Z,23.90
2017-08-26T11:08:02.785Z,23.90
2017-08-26T11:10:30.919Z,23.90
2017-08-26T11:12:58.796Z,23.90
2017-08-26T11:15:26.355Z,23.90
2017-08-26T11:17:53.939Z,23.90
2017-08-26T11:20:21.493Z,23.90
2017-08-26T11:22:49.335Z,24.00
2017-08-26T11:25:16.916Z,24.00
2017-08-26T11:27:44.531Z,24.00
2017-08-26T11:30:12.110Z,24.00
2017-08-26T11:32:39.715Z,24.20
2017-08-26T11:35:07.295Z,24.30
2017-08-26T11:37:34.906Z,24.30
2017-08-26T11:40:02.467Z,24.30
2017-08-26T11:42:30.084Z,24.50
2017-08-26T11:44:57.674Z,24.60
2017-08-26T11:47:25.640Z,24.60
2017-08-26T11:49:53.197Z,24.60
2017-08-26T11:52:20.760Z,24.60
2017-08-26T11:54:48.351Z,24.60
2017-08-26T11:57:15.925Z,24.50
2017-08-26T11:59:43.560Z,24.50
2017-08-26T12:02:11.937Z,24.40
2017-08-26T12:04:39.585Z,24.40
2017-08-26T12:07:07.160Z,24.40
2017-08-26T12:09:34.749Z,24.30
2017-08-26T12:12:02.300Z,24.30
2017-08-26T12:14:29.913Z,24.20
2017-08-26T12:16:57.473Z,24.20
2017-08-26T12:19:25.078Z,24.20
2017-08-26T12:21:52.793Z,24.20
2017-08-26T12:24:20.404Z,24.30
2017-08-26T12:26:48.104Z,24.40
2017-08-26T12:29:15.705Z,24.60
2017-08-26T12:31:43.251Z,24.80
2017-08-26T12:34:10.849Z,25.00
2017-08-26T12:36:38.423Z,25.10
2017-08-26T12:39:06.020Z,25.20
2017-08-26T12:41:33.588Z,25.10
2017-08-26T12:44:01.200Z,25.10
2017-08-26T12:46:28.770Z,25.00
2017-08-26T12:48:56.370Z,25.00
2017-08-26T12:51:23.944Z,24.90
2017-08-26T12:53:51.563Z,24.90
2017-08-26T12:56:19.130Z,24.90
2017-08-26T12:58:46.709Z,24.90
2017-08-26T13:01:14.260Z,24.80
2017-08-26T13:03:42.287Z,24.80
2017-08-26T13:06:09.884Z,24.80
2017-08-26T13:08:37.452Z,24.80
2017-08-26T13:11:05.074Z,25.00
2017-08-26T13:13:32.788Z,25.20
2017-08-26T13:16:00.391Z,25.60
2017-08-26T13:18:27.956Z,26.00
2017-08-26T13:20:55.577Z,26.40
2017-08-26T13:23:23.145Z,27.20
2017-08-26T13:25:50.758Z,27.80
2017-08-26T13:28:18.310Z,28.40
2017-08-26T13:30:46.163Z,28.90
2017-08-26T13:33:13.726Z,29.30
2017-08-26T13:35:41.342Z,29.70
2017-08-26T13:38:08.917Z,30.00
2017-08-26T13:40:36.538Z,30.50
2017-08-26T13:43:04.110Z,30.90
2017-08-26T13:45:31.726Z,31.30
2017-08-26T13:47:59.296Z,31.80
2017-08-26T13:50:26.943Z,32.10
2017-08-26T13:52:54.518Z,32.50
2017-08-26T13:55:22.121Z,32.40
2017-08-26T13:57:49.688Z,32.90
2017-08-26T14:00:17.258Z,33.30
2017-08-26T14:02:44.822Z,33.70
2017-08-26T14:05:12.460Z,33.90
2017-08-26T14:07:40.031Z,34.30
2017-08-26T14:10:07.629Z,34.50
2017-08-26T14:12:35.193Z,34.80
2017-08-26T14:15:02.798Z,35.00
2017-08-26T14:17:30.344Z,35.00
2017-08-26T14:19:58.391Z,34.10
2017-08-26T14:22:25.966Z,33.20
2017-08-26T14:24:53.532Z,32.40
2017-08-26T14:27:21.136Z,31.60
2017-08-26T14:29:48.727Z,30.90
2017-08-26T14:32:16.336Z,30.30
2017-08-26T14:34:43.905Z,29.80
2017-08-26T14:37:11.551Z,29.40
2017-08-26T14:39:39.107Z,28.90
2017-08-26T14:42:07.665Z,28.60
2017-08-26T14:44:35.221Z,28.30
2017-08-26T14:47:02.819Z,28.00
2017-08-26T14:49:30.385Z,27.70
2017-08-26T14:51:57.983Z,27.50
2017-08-26T14:54:25.563Z,27.40
2017-08-26T14:56:53.168Z,27.30
2017-08-26T14:59:20.724Z,27.20
2017-08-26T15:01:48.347Z,27.20
2017-08-26T15:04:15.934Z,27.10
2017-08-26T15:06:43.546Z,27.00
2017-08-26T15:09:11.121Z,26.90
2017-08-26T15:11:38.711Z,26.80
2017-08-26T15:14:06.283Z,26.80
2017-08-26T15:16:34.623Z,26.80
2017-08-26T15:19:02.204Z,26.80
2017-08-26T15:21:29.937Z,26.80
2017-08-26T15:23:57.503Z,26.70
2017-08-26T15:26:25.112Z,26.60
2017-08-26T15:28:52.687Z,26.60
2017-08-26T15:31:20.317Z,26.60
2017-08-26T15:33:47.889Z,26.60
2017-08-26T15:36:15.896Z,26.60
2017-08-26T15:38:43.450Z,26.60
2017-08-26T15:41:11.021Z,26.60
2017-08-26T15:43:38.661Z,26.50
2017-08-26T15:46:06.256Z,26.50
2017-08-26T15:51:07.635Z,26.40
2017-08-26T15:53:35.258Z,26.30
2017-08-26T15:56:02.879Z,26.20
2017-08-26T15:58:30.470Z,26.20
2017-08-26T16:00:58.045Z,26.10
2017-08-26T16:03:25.670Z,26.10
2017-08-26T16:05:53.233Z,26.00
2017-08-26T16:08:20.855Z,25.90
2017-08-26T16:10:48.430Z,25.80
2017-08-26T16:13:16.042Z,25.60
2017-08-26T16:15:43.617Z,25.50
2017-08-26T16:18:11.232Z,25.40
2017-08-26T16:20:39.002Z,25.30
2017-08-26T16:23:06.588Z,25.20
2017-08-26T16:25:34.173Z,25.10
2017-08-26T16:28:02.700Z,25.10
2017-08-26T16:30:30.265Z,25.00
2017-08-26T16:32:57.870Z,25.00
2017-08-26T16:35:25.443Z,25.00
2017-08-26T16:37:53.046Z,24.90
2017-08-26T16:40:20.668Z,24.90
2017-08-26T16:42:48.261Z,24.80
2017-08-26T16:45:15.824Z,24.80
2017-08-26T16:47:43.449Z,24.70
2017-08-26T16:50:11.016Z,24.70
2017-08-26T16:52:38.608Z,24.70
2017-08-26T16:55:06.185Z,24.60
2017-08-26T16:57:33.781Z,24.60
2017-08-26T17:00:01.426Z,24.50
2017-08-26T17:02:29.030Z,24.40
2017-08-26T17:04:56.641Z,24.40
2017-08-26T17:07:24.220Z,24.40
2017-08-26T17:09:51.824Z,24.30
2017-08-26T17:12:19.419Z,24.30
2017-08-26T17:14:47.046Z,24.20
2017-08-26T17:17:14.607Z,24.20
2017-08-26T17:19:42.209Z,24.10
2017-08-26T17:22:09.780Z,24.10
2017-08-26T17:24:37.742Z,24.00
2017-08-26T17:27:05.321Z,24.00
2017-08-26T17:29:32.956Z,23.90
2017-08-26T17:32:00.535Z,23.90
2017-08-26T17:34:28.151Z,23.80
2017-08-26T17:36:55.752Z,23.80
2017-08-26T17:39:23.654Z,23.70
2017-08-26T17:41:51.234Z,23.70
2017-08-26T17:44:18.867Z,23.70
2017-08-26T17:46:46.448Z,23.70
2017-08-26T17:49:14.053Z,23.70
2017-08-26T17:51:41.638Z,23.70
2017-08-26T17:54:09.515Z,23.70
2017-08-26T17:56:37.073Z,23.20
2017-08-26T17:59:04.688Z,22.70
2017-08-26T18:01:32.243Z,22.40
2017-08-26T18:03:59.874Z,22.10
2017-08-26T18:06:27.451Z,22.00
2017-08-26T18:08:55.103Z,21.90
2017-08-26T18:11:22.775Z,21.80
2017-08-26T18:13:50.353Z,21.80
2017-08-26T18:16:17.974Z,21.70
2017-08-26T18:18:45.570Z,21.50
2017-08-26T18:21:13.186Z,21.40
2017-08-26T18:23:40.762Z,21.30
2017-08-26T18:26:08.386Z,21.30
2017-08-26T18:28:35.964Z,21.30
2017-08-26T18:31:03.565Z,21.20
2017-08-26T18:33:31.151Z,21.20
2017-08-26T18:35:58.822Z,21.10
2017-08-26T18:38:26.419Z,21.10
2017-08-26T18:40:54.052Z,21.10
2017-08-26T18:43:21.620Z,21.00
2017-08-26T18:45:49.252Z,21.00
2017-08-26T18:48:16.996Z,21.00
2017-08-26T18:50:44.635Z,20.90
2017-08-26T18:53:12.244Z,20.90
2017-08-26T18:55:39.866Z,20.90
2017-08-26T18:58:07.447Z,20.90
2017-08-26T19:00:35.104Z,20.90
2017-08-26T19:03:02.688Z,20.90
2017-08-26T19:05:30.314Z,20.80
2017-08-26T19:07:57.872Z,20.80
2017-08-26T19:10:25.487Z,20.70
2017-08-26T19:12:53.064Z,20.70
2017-08-26T19:15:20.669Z,20.70
2017-08-26T19:17:48.256Z,20.70
2017-08-26T19:20:15.907Z,20.60
2017-08-26T19:22:43.491Z,20.60
2017-08-26T19:25:11.518Z,20.60
2017-08-26T19:27:39.094Z,20.60
2017-08-26T19:30:06.669Z,20.70
2017-08-26T19:32:34.298Z,20.70
2017-08-26T19:35:01.880Z,20.70
2017-08-26T19:37:29.503Z,20.80
2017-08-26T19:39:57.080Z,20.80
2017-08-26T19:42:24.700Z,20.90
2017-08-26T19:44:52.264Z,20.90
2017-08-26T19:47:19.877Z,20.90
2017-08-26T19:49:47.504Z,20.90
2017-08-26T19:52:15.136Z,20.90
2017-08-26T19:54:42.716Z,20.90
2017-08-26T19:57:10.363Z,20.90
2017-08-26T19:59:37.945Z,20.90
2017-08-26T20:02:05.543Z,20.90
2017-08-26T20:04:33.292Z,20.90
2017-08-26T20:07:00.905Z,20.90
2017-08-26T20:09:28.493Z,20.90
2017-08-26T20:11:56.125Z,21.00
2017-08-26T20:14:23.704Z,21.00
2017-08-26T20:16:51.340Z,21.00
2017-08-26T20:19:18.910Z,21.00
2017-08-26T20:21:46.538Z,21.00
2017-08-26T20:24:14.331Z,21.00
2017-08-26T20:26:41.993Z,21.00
2017-08-26T20:29:09.583Z,21.10
2017-08-26T20:31:37.185Z,21.00
2017-08-26T20:34:04.756Z,21.00
2017-08-26T20:36:32.352Z,21.00
2017-08-26T20:38:59.916Z,21.00
2017-08-26T20:41:27.493Z,21.00
2017-08-26T20:43:55.114Z,21.00
2017-08-26T20:46:22.690Z,21.00
2017-08-26T20:48:50.300Z,20.90
2017-08-26T20:51:17.871Z,20.90
2017-08-26T20:53:45.580Z,20.90
2017-08-26T20:56:13.150Z,20.90
2017-08-26T20:58:40.738Z,20.90
2017-08-26T21:01:08.341Z,20.90
2017-08-26T21:03:35.940Z,20.90
2017-08-26T21:06:03.586Z,20.90
2017-08-26T21:08:31.210Z,20.90
2017-08-26T21:10:58.789Z,20.90
2017-08-26T21:13:26.448Z,20.90
2017-08-26T21:15:54.026Z,20.90
2017-08-26T21:18:21.618Z,20.90
2017-08-26T21:20:49.188Z,20.80
2017-08-26T21:23:16.801Z,20.80
2017-08-26T21:25:44.453Z,20.70
2017-08-26T21:28:12.152Z,20.60
2017-08-26T21:30:39.729Z,20.50
2017-08-26T21:33:07.357Z,20.50
2017-08-26T21:35:35.091Z,20.50
2017-08-26T21:38:02.740Z,20.40
2017-08-26T21:40:30.347Z,20.40
2017-08-26T21:42:57.968Z,20.40
2017-08-26T21:45:25.557Z,20.30
2017-08-26T21:47:53.208Z,20.30
2017-08-26T21:50:20.785Z,20.30
2017-08-26T21:52:48.403Z,20.30
2017-08-26T21:55:16.072Z,20.30
2017-08-26T21:57:43.654Z,20.20
2017-08-26T22:00:11.318Z,20.20
2017-08-26T22:02:38.894Z,20.20
2017-08-26T22:05:06.576Z,20.20
2017-08-26T22:07:34.161Z,20.20
2017-08-26T22:10:01.781Z,20.20
2017-08-26T22:12:29.361Z,20.20
2017-08-26T22:14:56.994Z,20.20
2017-08-26T22:17:24.583Z,20.20
2017-08-26T22:19:52.238Z,20.20
2017-08-26T22:22:20.781Z,20.10
2017-08-26T22:24:48.447Z,20.10
2017-08-26T22:27:16.303Z,20.10
2017-08-26T22:29:43.969Z,20.10
2017-08-26T22:32:11.550Z,20.00
2017-08-26T22:34:39.362Z,20.00
2017-08-26T22:37:06.923Z,20.00
2017-08-26T22:39:34.563Z,20.00
2017-08-26T22:42:02.166Z,20.00
2017-08-26T22:44:29.802Z,19.90
2017-08-26T22:46:57.371Z,19.90
2017-08-26T22:49:25.010Z,19.80
2017-08-26T22:51:52.582Z,19.80
2017-08-26T22:54:20.201Z,19.70
2017-08-26T22:56:47.770Z,19.70
2017-08-26T22:59:15.386Z,19.70
2017-08-26T23:01:43.802Z,19.70
2017-08-26T23:04:11.438Z,19.70
2017-08-26T23:06:39.005Z,19.70
2017-08-26T23:09:06.595Z,19.70
2017-08-26T23:11:34.177Z,19.60
2017-08-26T23:14:01.741Z,19.60
2017-08-26T23:16:29.354Z,19.60
2017-08-26T23:18:56.964Z,19.60
2017-08-26T23:21:24.705Z,19.50
2017-08-26T23:23:52.275Z,19.60
2017-08-26T23:26:20.039Z,19.50
2017-08-26T23:28:47.604Z,19.60
2017-08-26T23:31:15.223Z,19.60
2017-08-26T23:33:42.793Z,19.60
2017-08-26T23:36:10.395Z,19.60
2017-08-26T23:38:37.945Z,19.50
2017-08-26T23:41:05.554Z,19.50
2017-08-26T23:43:33.107Z,19.50
2017-08-26T23:46:00.700Z,19.50
2017-08-26T23:48:28.383Z,19.50
2017-08-26T23:50:55.985Z,19.50
2017-08-26T23:53:23.556Z,19.40
2017-08-26T23:55:51.156Z,19.40
2017-08-26T23:58:18.726Z,19.40
